^^
Datos históricos de la estación: Murcia-Puente Tocinos
Diario Informe para Diciembre 1, 2021 Unidades:  Métrico    Ingés   Ambas
Diario Semanal Mensual Anual
  Máxima: Mínima: Promedio:
Temperatura: 18.4 °C 6.4 °C 12 °C
Punto de rocio: 7.5 °C 4.4 °C 5.9 °C
Humedad: 88% 42.1% 69%
Velocidad viento: 10km/h 2.3km/h 5.9km/h
Racha viento: 15.6km/h - -
Viento- - SSO
Presión: 1025.3 hPa 1011.9 hPa -
Precipitación: 0.0 mm    
 
 
Tabla de datos para Diciembre 1, 2021
Hora Temperatura Punto de rocio Presión Viento Velocidad viento Racha viento Humedad Intensidad lluvia(por hora) Nubes
00:04 10.6 °C 7.4 °C 1025.3 hPa SSE 5.8 km/h 8.7 km/h 80.7% 0.0 mm
00:09 10.5 °C 7.3 °C 1025.3 hPa Sur 5.9 km/h 9.5 km/h 80.6% 0.0 mm
00:14 10.4 °C 7.3 °C 1025.3 hPa SSO 6.4 km/h 10 km/h 81% 0.0 mm
00:19 10.4 °C 7.4 °C 1025.2 hPa SSO 6.5 km/h 11.1 km/h 82% 0.0 mm
00:24 10.4 °C 7.4 °C 1025.2 hPa SO 6.9 km/h 9.3 km/h 82% 0.0 mm
00:29 10.3 °C 7.3 °C 1025.2 hPa OSO 6.5 km/h 7.4 km/h 82% 0.0 mm
00:34 10.2 °C 7.3 °C 1025.2 hPa OSO 4.7 km/h 5.8 km/h 82% 0.0 mm
00:39 10.1 °C 7.2 °C 1025.2 hPa OSO 4.4 km/h 4.7 km/h 82% 0.0 mm
00:44 10 °C 7.2 °C 1025.2 hPa SO 3.2 km/h 7.4 km/h 82.5% 0.0 mm
00:49 10.1 °C 7.3 °C 1025.0 hPa SSO 3.5 km/h 9.3 km/h 83% 0.0 mm
00:54 10.1 °C 7.3 °C 1025.0 hPa SSO 4.7 km/h 5.6 km/h 83% 0.0 mm
00:59 10.1 °C 7.3 °C 1025.0 hPa SSO 4.2 km/h 7.4 km/h 83% 0.0 mm
01:04 9.9 °C 7.2 °C 1024.9 hPa SO 2.3 km/h 7.4 km/h 83% 0.0 mm
01:09 9.9 °C 7.3 °C 1024.9 hPa SO 2.7 km/h 7.6 km/h 83.9% 0.0 mm
01:14 9.9 °C 7.3 °C 1024.9 hPa SSO 4.7 km/h 7.6 km/h 84% 0.0 mm
01:19 9.9 °C 7.3 °C 1024.8 hPa SSO 4.7 km/h 10.3 km/h 84% 0.0 mm
01:24 9.9 °C 7.3 °C 1024.8 hPa SO 5 km/h 11.1 km/h 84% 0.0 mm
01:29 9.9 °C 7.4 °C 1024.8 hPa SSO 5.1 km/h 9.3 km/h 84.3% 0.0 mm
01:34 9.9 °C 7.5 °C 1024.7 hPa Sur 5.8 km/h 7.4 km/h 85% 0.0 mm
01:39 9.9 °C 7.5 °C 1024.7 hPa SSO 5.6 km/h 8.4 km/h 85% 0.0 mm
01:44 9.8 °C 7.4 °C 1024.7 hPa Sur 4.7 km/h 9.3 km/h 85% 0.0 mm
01:49 9.8 °C 7.4 °C 1024.5 hPa SSO 5 km/h 11.9 km/h 84.9% 0.0 mm
01:54 9.8 °C 7.2 °C 1024.5 hPa SSO 6.4 km/h 8.4 km/h 84% 0.0 mm
01:59 9.7 °C 7.3 °C 1024.5 hPa SSO 6.3 km/h 10 km/h 85% 0.0 mm
02:04 9.7 °C 7.3 °C 1024.4 hPa SSO 5.8 km/h 9.5 km/h 85% 0.0 mm
02:09 9.6 °C 7.2 °C 1024.4 hPa SSO 5.9 km/h 12.2 km/h 85% 0.0 mm
02:14 9.6 °C 7.2 °C 1024.4 hPa SSO 6.4 km/h 13 km/h 85% 0.0 mm
02:19 9.4 °C 7.1 °C 1024.3 hPa Sur 6.6 km/h 10 km/h 85% 0.0 mm
02:24 9.3 °C 7 °C 1024.3 hPa Sur 7.6 km/h 11.1 km/h 85% 0.0 mm
02:29 9.2 °C 6.9 °C 1024.3 hPa Sur 7.6 km/h 11.1 km/h 85% 0.0 mm
02:34 9.2 °C 6.8 °C 1024.2 hPa Sur 7.6 km/h 11.1 km/h 85% 0.0 mm
02:39 9 °C 6.6 °C 1024.2 hPa Sur 7.7 km/h 11.1 km/h 85% 0.0 mm
02:44 8.8 °C 6.5 °C 1024.2 hPa Sur 8.4 km/h 11.1 km/h 85% 0.0 mm
02:49 8.7 °C 6.3 °C 1024.1 hPa Sur 8.4 km/h 13 km/h 85% 0.0 mm
02:54 8.6 °C 6.2 °C 1024.1 hPa Sur 8.4 km/h 11.1 km/h 85% 0.0 mm
02:59 8.4 °C 6 °C 1024.1 hPa Sur 8.1 km/h 11.1 km/h 85% 0.0 mm
03:04 8.3 °C 6 °C 1024.1 hPa Sur 6.9 km/h 9.5 km/h 85% 0.0 mm
03:09 8.2 °C 6 °C 1024.1 hPa Sur 6.9 km/h 10 km/h 86% 0.0 mm
03:14 8.2 °C 6 °C 1024.1 hPa Sur 6.9 km/h 11.1 km/h 86% 0.0 mm
03:19 8.2 °C 6 °C 1023.9 hPa Sur 6.8 km/h 9.5 km/h 86% 0.0 mm
03:24 8.2 °C 6 °C 1023.9 hPa SSO 6.4 km/h 9.3 km/h 86% 0.0 mm
03:29 8.3 °C 6.1 °C 1023.9 hPa SO 6.3 km/h 10 km/h 86% 0.0 mm
03:34 8.3 °C 6 °C 1023.8 hPa SO 5.8 km/h 13 km/h 85.2% 0.0 mm
03:39 8.3 °C 5.9 °C 1023.8 hPa SO 6.1 km/h 13 km/h 85% 0.0 mm
03:44 8.3 °C 5.9 °C 1023.8 hPa SO 7.6 km/h 13 km/h 85% 0.0 mm
03:49 8.3 °C 5.9 °C 1023.6 hPa SO 7.6 km/h 11.1 km/h 85% 0.0 mm
03:54 8.3 °C 5.9 °C 1023.6 hPa OSO 7.6 km/h 9.3 km/h 85% 0.0 mm
03:59 8.3 °C 5.9 °C 1023.6 hPa SO 6.9 km/h 7.4 km/h 85% 0.0 mm
04:04 8.2 °C 5.9 °C 1023.4 hPa Oeste 5 km/h 7.4 km/h 85% 0.0 mm
04:09 8.2 °C 5.8 °C 1023.4 hPa Oeste 4.8 km/h 7.4 km/h 85% 0.0 mm
04:14 8.2 °C 5.8 °C 1023.4 hPa OSO 3.9 km/h 7.6 km/h 85% 0.0 mm
04:19 8.1 °C 5.7 °C 1023.2 hPa SO 4 km/h 7.6 km/h 85% 0.0 mm
04:24 8.1 °C 5.7 °C 1023.2 hPa SO 4.7 km/h 7.4 km/h 85.2% 0.0 mm
04:29 8.1 °C 5.9 °C 1023.2 hPa SO 4.7 km/h 7.6 km/h 86% 0.0 mm
04:34 8.1 °C 5.9 °C 1023.0 hPa SSO 4.7 km/h 8.7 km/h 86% 0.0 mm
04:39 8.1 °C 5.9 °C 1023.0 hPa SSO 4.8 km/h 9.3 km/h 86% 0.0 mm
04:44 8.1 °C 5.9 °C 1023.0 hPa SO 5.8 km/h 8.4 km/h 86% 0.0 mm
04:49 8.2 °C 6 °C 1022.8 hPa SO 5.7 km/h 7.4 km/h 86% 0.0 mm
04:54 8.2 °C 5.9 °C 1022.8 hPa SO 5 km/h 5.8 km/h 85.5% 0.0 mm
04:59 8.2 °C 5.8 °C 1022.8 hPa SO 4.6 km/h 5.6 km/h 85% 0.0 mm
05:04 8.1 °C 5.8 °C 1022.7 hPa SO 3.2 km/h 3.9 km/h 85% 0.0 mm
05:09 8 °C 5.6 °C 1022.7 hPa SO 3.1 km/h 5.8 km/h 85% 0.0 mm
05:14 7.9 °C 5.6 °C 1022.7 hPa OSO 2.3 km/h 7.4 km/h 85% 0.0 mm
05:19 7.9 °C 5.6 °C 1022.5 hPa SO 2.6 km/h 8.4 km/h 85% 0.0 mm
05:24 7.8 °C 5.5 °C 1022.5 hPa SO 4.7 km/h 7.4 km/h 85% 0.0 mm
05:29 7.8 °C 5.4 °C 1022.5 hPa Sur 4.5 km/h 7.4 km/h 84.9% 0.0 mm
05:34 7.6 °C 5.1 °C 1022.4 hPa SE 3.9 km/h 6.4 km/h 84% 0.0 mm
05:39 7.3 °C 4.7 °C 1022.4 hPa SE 4 km/h 7.6 km/h 84% 0.0 mm
05:44 7 °C 4.6 °C 1022.4 hPa SE 4.7 km/h 7.4 km/h 84.6% 0.0 mm
05:49 6.9 °C 4.6 °C 1022.4 hPa SE 4.7 km/h 7.4 km/h 85.4% 0.0 mm
05:54 6.8 °C 4.6 °C 1022.4 hPa SE 4.7 km/h 7.6 km/h 86% 0.0 mm
05:59 6.7 °C 4.5 °C 1022.4 hPa SE 4.7 km/h 7.4 km/h 86% 0.0 mm
06:04 6.6 °C 4.5 °C 1022.4 hPa SE 4.7 km/h 7.4 km/h 86.1% 0.0 mm
06:09 6.6 °C 4.6 °C 1022.4 hPa SE 4.7 km/h 7.6 km/h 87% 0.0 mm
06:14 6.5 °C 4.5 °C 1022.4 hPa SSE 4.7 km/h 8.4 km/h 87% 0.0 mm
06:19 6.4 °C 4.4 °C 1022.3 hPa SSE 4.9 km/h 10 km/h 87% 0.0 mm
06:24 6.4 °C 4.5 °C 1022.3 hPa Sur 5.8 km/h 9.3 km/h 87.6% 0.0 mm
06:29 6.5 °C 4.6 °C 1022.4 hPa Sur 5.8 km/h 8.4 km/h 88% 0.0 mm
06:34 6.6 °C 4.8 °C 1022.4 hPa Sur 5.8 km/h 8.4 km/h 88% 0.0 mm
06:39 6.6 °C 4.8 °C 1022.4 hPa SSE 5.7 km/h 7.4 km/h 88% 0.0 mm
06:44 6.7 °C 4.8 °C 1022.4 hPa SSE 5 km/h 8.4 km/h 88% 0.0 mm
06:49 6.7 °C 4.8 °C 1022.3 hPa Sur 5.1 km/h 10.3 km/h 88% 0.0 mm
06:54 6.7 °C 4.8 °C 1022.3 hPa SSO 5.8 km/h 11.1 km/h 88% 0.0 mm
06:59 6.7 °C 4.8 °C 1022.4 hPa SSO 5.9 km/h 9.5 km/h 88% 0.0 mm
07:04 6.7 °C 4.8 °C 1022.4 hPa SSO 6.4 km/h 10 km/h 88% 0.0 mm
07:09 6.7 °C 4.8 °C 1022.4 hPa SSO 6.4 km/h 9.5 km/h 88% 0.0 mm
07:14 6.7 °C 4.8 °C 1022.4 hPa SSO 6.4 km/h 7.6 km/h 88% 0.0 mm
07:19 6.7 °C 4.9 °C 1022.4 hPa SSO 6.2 km/h 8.4 km/h 88% 0.0 mm
07:24 6.8 °C 4.9 °C 1022.4 hPa SO 5 km/h 7.4 km/h 88% 0.0 mm
07:29 6.8 °C 4.9 °C 1022.4 hPa SO 5.1 km/h 10 km/h 88% 0.0 mm
07:34 6.8 °C 4.9 °C 1022.4 hPa OSO 5.8 km/h 7.6 km/h 87.5% 0.0 mm
07:39 6.8 °C 4.8 °C 1022.4 hPa SO 5.6 km/h 7.6 km/h 87% 0.0 mm
07:44 6.8 °C 4.8 °C 1022.4 hPa SO 4.7 km/h 7.4 km/h 87% 0.0 mm
07:49 6.8 °C 4.8 °C 1022.4 hPa Sur 4.7 km/h 7.6 km/h 87% 0.0 mm
07:54 6.8 °C 4.8 °C 1022.4 hPa Sur 4.7 km/h 9.5 km/h 87% 0.0 mm
07:59 6.8 °C 4.8 °C 1022.4 hPa SSO 5 km/h 9.5 km/h 87% 0.0 mm
08:04 6.8 °C 4.8 °C 1022.3 hPa SSO 6.4 km/h 9.3 km/h 87% 0.0 mm
08:09 6.8 °C 4.8 °C 1022.3 hPa SSO 6.4 km/h 9.5 km/h 87% 0.0 mm
08:14 6.8 °C 4.8 °C 1022.3 hPa SSO 6.4 km/h 11.1 km/h 87% 0.0 mm
08:19 6.9 °C 4.9 °C 1022.3 hPa SSO 6.4 km/h 8.4 km/h 87% 0.0 mm
08:24 6.9 °C 4.9 °C 1022.3 hPa SO 6.4 km/h 7.6 km/h 87% 0.0 mm
08:29 6.9 °C 4.9 °C 1022.4 hPa SO 6.2 km/h 8.4 km/h 87% 0.0 mm
08:34 6.9 °C 4.9 °C 1022.4 hPa OSO 5 km/h 8.4 km/h 86.7% 0.0 mm
08:39 7 °C 4.9 °C 1022.4 hPa SO 5 km/h 7.6 km/h 86.3% 0.0 mm
08:44 7.1 °C 4.9 °C 1022.4 hPa SO 5 km/h 6.9 km/h 86% 0.0 mm
08:49 7.2 °C 5 °C 1022.2 hPa Sur 4.9 km/h 8.4 km/h 86% 0.0 mm
08:54 7.2 °C 4.9 °C 1022.2 hPa SSE 4.7 km/h 9.3 km/h 85.4% 0.0 mm
08:59 7.3 °C 4.9 °C 1022.3 hPa SSE 4.9 km/h 9.3 km/h 85% 0.0 mm
09:04 7.3 °C 5 °C 1022.3 hPa Sur 5.8 km/h 7.6 km/h 85% 0.0 mm
09:09 7.4 °C 5 °C 1022.3 hPa Sur 5.6 km/h 7.4 km/h 84.7% 0.0 mm
09:14 7.6 °C 5 °C 1022.4 hPa Sur 4.7 km/h 8.4 km/h 84% 0.0 mm
09:19 7.7 °C 5.1 °C 1022.4 hPa Sur 4.7 km/h 7.6 km/h 83.9% 0.0 mm
09:24 7.8 °C 5.1 °C 1022.4 hPa Sur 5 km/h 9.3 km/h 83% 0.0 mm
09:29 7.9 °C 5.2 °C 1022.5 hPa SSO 5 km/h 9.5 km/h 83% 0.0 mm
09:34 8.2 °C 5.3 °C 1022.5 hPa Sur 5 km/h 10 km/h 82.1% 0.0 mm
09:39 8.3 °C 5.2 °C 1022.5 hPa Sur 5.1 km/h 9.3 km/h 81.1% 0.0 mm
09:44 8.6 °C 5.4 °C 1022.5 hPa Sur 5.8 km/h 11.1 km/h 80.5% 0.0 mm
09:49 8.8 °C 5.4 °C 1022.4 hPa Sur 6 km/h 12.2 km/h 79.2% 0.0 mm
09:54 8.9 °C 5.3 °C 1022.4 hPa SSO 6.9 km/h 13 km/h 78.1% 0.0 mm
09:59 9 °C 5.4 °C 1022.4 hPa SSO 7.1 km/h 13 km/h 77.7% 0.0 mm
10:04 9.1 °C 5.3 °C 1022.4 hPa SSO 7.6 km/h 14.8 km/h 77% 0.0 mm
10:09 9.3 °C 5.4 °C 1022.4 hPa SSO 7.6 km/h 13 km/h 76.9% 0.0 mm
10:14 9.5 °C 5.5 °C 1022.4 hPa SO 7.6 km/h 15.6 km/h 75.8% 0.0 mm
10:19 9.6 °C 5.3 °C 1022.3 hPa SSO 7.6 km/h 14.8 km/h 74.8% 0.0 mm
10:24 9.7 °C 5.3 °C 1022.3 hPa SO 7.6 km/h 13 km/h 74% 0.0 mm
10:29 9.8 °C 5.4 °C 1022.3 hPa SO 7.6 km/h 11.1 km/h 74% 0.0 mm
10:34 10 °C 5.4 °C 1022.2 hPa SO 7.6 km/h 13 km/h 73.2% 0.0 mm
10:39 10.1 °C 5.3 °C 1022.2 hPa SO 7.7 km/h 13.7 km/h 72.1% 0.0 mm
10:44 10.2 °C 5.5 °C 1022.2 hPa SO 8.4 km/h 11.1 km/h 72.8% 0.0 mm
10:49 10.4 °C 5.7 °C 1022.0 hPa Sur 8 km/h 10 km/h 72.2% 0.0 mm
10:54 10.7 °C 5.7 °C 1022.0 hPa SO 5.8 km/h 11.1 km/h 70.8% 0.0 mm
10:59 11 °C 5.6 °C 1022.0 hPa SSO 6 km/h 14.8 km/h 69% 0.0 mm
11:04 11.2 °C 5.4 °C 1022.0 hPa SSO 6.9 km/h 13.7 km/h 67.3% 0.0 mm
11:09 11.3 °C 5.4 °C 1022.0 hPa SO 7.2 km/h 13 km/h 66.7% 0.0 mm
11:14 11.6 °C 5.4 °C 1022.0 hPa SSO 8.4 km/h 15.6 km/h 65.9% 0.0 mm
11:19 11.8 °C 5.4 °C 1021.9 hPa SSO 8.4 km/h 14.8 km/h 64.9% 0.0 mm
11:24 12 °C 5.4 °C 1021.9 hPa SSO 8.7 km/h 13 km/h 64% 0.0 mm
11:29 12.2 °C 5.6 °C 1021.9 hPa SSO 8.6 km/h 9.5 km/h 64% 0.0 mm
11:34 12.4 °C 5.8 °C 1021.6 hPa SSO 8.4 km/h 10 km/h 63.9% 0.0 mm
11:39 12.7 °C 5.8 °C 1021.6 hPa SSO 7.8 km/h 9.5 km/h 63% 0.0 mm
11:44 12.8 °C 5.9 °C 1021.6 hPa Sur 5 km/h 8.4 km/h 63% 0.0 mm
11:49 13.3 °C 6.2 °C 1021.3 hPa SSE 4.9 km/h 8.4 km/h 62.5% 0.0 mm
11:54 13.5 °C 6.1 °C 1021.3 hPa SSO 4.7 km/h 9.5 km/h 61% 0.0 mm
11:59 13.7 °C 6 °C 1021.3 hPa SSO 4.9 km/h 9.3 km/h 59.9% 0.0 mm
12:04 13.8 °C 6 °C 1021.0 hPa SSO 5.8 km/h 9.5 km/h 59.4% 0.0 mm
12:09 13.8 °C 6 °C 1021.0 hPa SSO 5.7 km/h 8.4 km/h 59.2% 0.0 mm
12:14 14.1 °C 5.9 °C 1021.0 hPa SSO 5 km/h 7.4 km/h 58.2% 0.0 mm
12:19 14.2 °C 6 °C 1020.6 hPa Sur 5 km/h 9.3 km/h 57.6% 0.0 mm
12:24 14.4 °C 5.9 °C 1020.6 hPa SSO 5 km/h 7.6 km/h 56.6% 0.0 mm
12:29 14.5 °C 5.8 °C 1020.6 hPa SSO 4.9 km/h 8.4 km/h 56% 0.0 mm
12:34 14.6 °C 5.9 °C 1020.1 hPa SSO 4.7 km/h 9.5 km/h 56% 0.0 mm
12:39 14.7 °C 5.8 °C 1020.1 hPa SSE 4.7 km/h 9.5 km/h 55.1% 0.0 mm
12:44 14.9 °C 5.9 °C 1020.1 hPa SSE 5 km/h 7.4 km/h 54.8% 0.0 mm
12:49 15.2 °C 5.9 °C 1019.6 hPa SE 4.7 km/h 10 km/h 53.6% 0.0 mm
12:54 15.4 °C 5.6 °C 1019.6 hPa Sur 3.2 km/h 11.1 km/h 52% 0.0 mm
12:59 15.5 °C 5.6 °C 1019.6 hPa ONO 3.5 km/h 7.6 km/h 51.9% 0.0 mm
13:04 15.6 °C 5.5 °C 1019.2 hPa ONO 4.7 km/h 10 km/h 51.3% 0.0 mm
13:09 15.6 °C 5.5 °C 1019.2 hPa Oeste 4.7 km/h 9.3 km/h 51% 0.0 mm
13:14 15.6 °C 5.6 °C 1019.2 hPa Oeste 4.7 km/h 7.4 km/h 51.3% 0.0 mm
13:19 15.8 °C 5.6 °C 1018.8 hPa SO 4.7 km/h 13 km/h 51.1% 0.0 mm
13:24 15.8 °C 5.6 °C 1018.8 hPa SSO 4.7 km/h 11.1 km/h 50.9% 0.0 mm
13:29 15.8 °C 5.6 °C 1018.8 hPa OSO 4.7 km/h 8.4 km/h 50.4% 0.0 mm
13:34 15.9 °C 5.7 °C 1018.4 hPa OSO 4.7 km/h 5 km/h 50.6% 0.0 mm
13:39 16.2 °C 5.7 °C 1018.4 hPa SSE 4.4 km/h 8.4 km/h 49.6% 0.0 mm
13:44 16.4 °C 5.5 °C 1018.4 hPa SE 3.2 km/h 7.4 km/h 48.7% 0.0 mm
13:49 16.6 °C 5.5 °C 1017.9 hPa Sur 3.5 km/h 8.7 km/h 48% 0.0 mm
13:54 16.7 °C 5.3 °C 1017.9 hPa SSO 4.7 km/h 11.1 km/h 47.1% 0.0 mm
13:59 16.7 °C 5.3 °C 1017.9 hPa Sur 4.9 km/h 9.3 km/h 47% 0.0 mm
14:04 16.7 °C 5.3 °C 1017.5 hPa SSO 5.8 km/h 9.5 km/h 47% 0.0 mm
14:09 16.8 °C 5.4 °C 1017.5 hPa SSO 5.6 km/h 10 km/h 46.9% 0.0 mm
14:14 16.8 °C 5.4 °C 1017.5 hPa SSE 4.7 km/h 10 km/h 47% 0.0 mm
14:19 16.8 °C 5.4 °C 1017.1 hPa SSO 5 km/h 9.3 km/h 46.9% 0.0 mm
14:24 16.9 °C 5.4 °C 1017.1 hPa SO 6.4 km/h 10 km/h 46.9% 0.0 mm
14:29 16.9 °C 5.2 °C 1017.1 hPa SO 6.3 km/h 9.3 km/h 46% 0.0 mm
14:34 17.1 °C 5.6 °C 1016.7 hPa SO 5.8 km/h 10 km/h 46.9% 0.0 mm
14:39 17.2 °C 5.5 °C 1016.7 hPa Oeste 5.7 km/h 8.4 km/h 46.2% 0.0 mm
14:44 17.2 °C 5.6 °C 1016.7 hPa Oeste 5 km/h 9.5 km/h 46.6% 0.0 mm
14:49 17.2 °C 5.8 °C 1016.4 hPa SO 5 km/h 9.3 km/h 47% 0.0 mm
14:54 17.2 °C 5.6 °C 1016.4 hPa SSO 5 km/h 10 km/h 46.4% 0.0 mm
14:59 17.2 °C 5.7 °C 1016.4 hPa Sur 4.9 km/h 5.8 km/h 46.7% 0.0 mm
15:04 17.3 °C 5.9 °C 1016.1 hPa SO 4.7 km/h 11.1 km/h 46.8% 0.0 mm
15:09 17.6 °C 6 °C 1016.1 hPa SO 4.7 km/h 9.3 km/h 46.6% 0.0 mm
15:14 17.7 °C 6.2 °C 1016.1 hPa SSO 5 km/h 13.7 km/h 46.9% 0.0 mm
15:19 17.7 °C 6.2 °C 1015.8 hPa SSO 5.1 km/h 8.7 km/h 46.8% 0.0 mm
15:24 17.8 °C 6 °C 1015.8 hPa OSO 5.8 km/h 10 km/h 46.1% 0.0 mm
15:29 17.8 °C 6 °C 1015.8 hPa SO 5.8 km/h 10 km/h 46% 0.0 mm
15:34 17.8 °C 6 °C 1015.5 hPa OSO 5.8 km/h 9.3 km/h 46% 0.0 mm
15:39 17.8 °C 6 °C 1015.5 hPa ONO 5.8 km/h 10 km/h 45.9% 0.0 mm
15:44 17.8 °C 6.1 °C 1015.5 hPa OSO 5.8 km/h 11.1 km/h 46% 0.0 mm
15:49 17.9 °C 5.9 °C 1015.3 hPa SO 5.8 km/h 10 km/h 45.2% 0.0 mm
15:54 18 °C 5.7 °C 1015.3 hPa Sur 5.8 km/h 9.5 km/h 44.5% 0.0 mm
15:59 18 °C 5.9 °C 1015.3 hPa Oeste 5.6 km/h 7.4 km/h 45% 0.0 mm
16:04 18.1 °C 5.7 °C 1015.3 hPa ONO 5 km/h 7.4 km/h 44.1% 0.0 mm
16:09 18.3 °C 5.7 °C 1015.3 hPa OSO 4.7 km/h 7.4 km/h 43.6% 0.0 mm
16:14 18.4 °C 5.5 °C 1015.3 hPa SO 3.2 km/h 10.3 km/h 42.6% 0.0 mm
16:19 18.4 °C 5.3 °C 1015.1 hPa SSO 3.5 km/h 11.1 km/h 42.2% 0.0 mm
16:24 18.4 °C 5.3 °C 1015.1 hPa Sur 5 km/h 9.3 km/h 42.1% 0.0 mm
16:29 18.3 °C 5.3 °C 1015.1 hPa SSO 5.1 km/h 9.3 km/h 42.3% 0.0 mm
16:34 18.3 °C 5.5 °C 1014.9 hPa Sur 5.8 km/h 10 km/h 43% 0.0 mm
16:39 18.3 °C 5.5 °C 1014.9 hPa SSE 5.9 km/h 11.1 km/h 43% 0.0 mm
16:44 18.2 °C 5.4 °C 1014.9 hPa SSE 6.4 km/h 11.1 km/h 43% 0.0 mm
16:49 18.1 °C 5.3 °C 1014.6 hPa SSE 6.8 km/h 13 km/h 43% 0.0 mm
16:54 17.9 °C 5.4 °C 1014.6 hPa SSE 8.4 km/h 11.1 km/h 43.9% 0.0 mm
16:59 17.9 °C 5.5 °C 1014.6 hPa SSE 8.2 km/h 11.1 km/h 44.1% 0.0 mm
17:04 17.8 °C 5.7 °C 1014.5 hPa Sur 7.6 km/h 12.2 km/h 45% 0.0 mm
17:09 17.7 °C 5.9 °C 1014.5 hPa SSE 7.7 km/h 13 km/h 45.6% 0.0 mm
17:14 17.7 °C 6.1 °C 1014.5 hPa SSE 8.4 km/h 13 km/h 46.8% 0.0 mm
17:19 17.5 °C 6.3 °C 1014.4 hPa SSE 8.2 km/h 11.1 km/h 48% 0.0 mm
17:24 17.4 °C 6.4 °C 1014.4 hPa SSE 7.6 km/h 11.1 km/h 48.4% 0.0 mm
17:29 17.2 °C 6.4 °C 1014.4 hPa SE 7.4 km/h 10 km/h 49% 0.0 mm
17:34 17.1 °C 6.6 °C 1014.4 hPa SE 6.4 km/h 13 km/h 50.2% 0.0 mm
17:39 16.8 °C 6.8 °C 1014.4 hPa SSE 6.8 km/h 11.9 km/h 51.7% 0.0 mm
17:44 16.5 °C 6.9 °C 1014.4 hPa SSE 8.4 km/h 9.5 km/h 53% 0.0 mm
17:49 16.3 °C 7 °C 1014.3 hPa SSE 8 km/h 9.5 km/h 54.1% 0.0 mm
17:54 16.2 °C 7.2 °C 1014.3 hPa SSE 6.4 km/h 8.4 km/h 55% 0.0 mm
17:59 16.1 °C 7.3 °C 1014.3 hPa SE 6.3 km/h 9.5 km/h 55.9% 0.0 mm
18:04 16 °C 7.3 °C 1014.2 hPa ESE 5.8 km/h 7.4 km/h 56.5% 0.0 mm
18:09 15.8 °C 7.4 °C 1014.2 hPa SSE 5.5 km/h 6.9 km/h 57.3% 0.0 mm
18:14 15.7 °C 7.4 °C 1014.2 hPa SE 3.9 km/h 9.3 km/h 58% 0.0 mm
18:19 15.6 °C 7.5 °C 1014.1 hPa SE 4 km/h 7.6 km/h 58.9% 0.0 mm
18:24 15.4 °C 7.4 °C 1014.1 hPa SE 4.7 km/h 9.3 km/h 59% 0.0 mm
18:29 15.4 °C 7.4 °C 1014.1 hPa SSE 4.9 km/h 8.7 km/h 59% 0.0 mm
18:34 15.3 °C 7.4 °C 1014.1 hPa SSO 5.8 km/h 9.3 km/h 59% 0.0 mm
18:39 15.3 °C 7.3 °C 1014.1 hPa OSO 5.5 km/h 7.4 km/h 59% 0.0 mm
18:44 15.2 °C 7.3 °C 1014.1 hPa Oeste 3.9 km/h 7.4 km/h 59% 0.0 mm
18:49 15.2 °C 7.2 °C 1014.1 hPa SO 4 km/h 13 km/h 59% 0.0 mm
18:54 15.2 °C 7.2 °C 1014.1 hPa SO 5 km/h 14.8 km/h 59% 0.0 mm
18:59 15.1 °C 7.2 °C 1014.2 hPa OSO 5.6 km/h 13 km/h 59% 0.0 mm
19:04 15 °C 7.3 °C 1014.2 hPa SO 7.6 km/h 13 km/h 59.9% 0.0 mm
19:09 14.9 °C 7.3 °C 1014.2 hPa SO 7.7 km/h 15.6 km/h 60.5% 0.0 mm
19:14 14.8 °C 7.3 °C 1014.2 hPa OSO 8.4 km/h 11.9 km/h 61% 0.0 mm
19:19 14.8 °C 7.3 °C 1014.1 hPa Oeste 8.1 km/h 7.6 km/h 61% 0.0 mm
19:24 14.7 °C 7.4 °C 1014.1 hPa SO 6.9 km/h 7.6 km/h 61.7% 0.0 mm
19:29 14.4 °C 7.4 °C 1014.2 hPa OSO 6.6 km/h 8.4 km/h 62.5% 0.0 mm
19:34 14.3 °C 7.3 °C 1014.2 hPa OSO 5 km/h 7.4 km/h 63% 0.0 mm
19:39 14.2 °C 7.5 °C 1014.2 hPa OSO 4.8 km/h 7.6 km/h 63.9% 0.0 mm
19:44 14.1 °C 7.4 °C 1014.3 hPa OSO 3.9 km/h 8.4 km/h 64% 0.0 mm
19:49 14 °C 7.5 °C 1014.3 hPa SSO 4 km/h 7.4 km/h 64.7% 0.0 mm
19:54 13.9 °C 7.4 °C 1014.3 hPa SSE 4.7 km/h 8.4 km/h 65% 0.0 mm
19:59 13.8 °C 7.4 °C 1014.3 hPa ESE 4.7 km/h 11.1 km/h 65% 0.0 mm
20:04 13.5 °C 7.2 °C 1014.3 hPa SE 4.7 km/h 11.1 km/h 65.5% 0.0 mm
20:09 13.2 °C 7.2 °C 1014.3 hPa ESE 5 km/h 11.1 km/h 66.7% 0.0 mm
20:14 13 °C 7.1 °C 1014.3 hPa SE 6.9 km/h 9.5 km/h 67.8% 0.0 mm
20:19 12.7 °C 7.2 °C 1014.2 hPa SE 6.9 km/h 13 km/h 68.7% 0.0 mm
20:24 12.6 °C 7.2 °C 1014.2 hPa SSE 6.9 km/h 11.9 km/h 69.4% 0.0 mm
20:29 12.6 °C 7.3 °C 1014.2 hPa SSE 7.2 km/h 15.6 km/h 70% 0.0 mm
20:34 12.7 °C 7.3 °C 1014.0 hPa Sur 8.7 km/h 14.8 km/h 69.5% 0.0 mm
20:39 12.9 °C 7.2 °C 1014.0 hPa SSO 8.8 km/h 13 km/h 68.3% 0.0 mm
20:44 13.2 °C 7.3 °C 1014.0 hPa SSO 9.5 km/h 12.2 km/h 67.3% 0.0 mm
20:49 13.2 °C 7.2 °C 1013.9 hPa SSO 9.3 km/h 13.7 km/h 66.7% 0.0 mm
20:54 13.4 °C 7.1 °C 1013.9 hPa SSO 8.4 km/h 11.9 km/h 66% 0.0 mm
20:59 13.4 °C 7.2 °C 1013.9 hPa SSO 8.2 km/h 11.1 km/h 66% 0.0 mm
21:04 13.4 °C 7.2 °C 1013.8 hPa SSO 7.6 km/h 11.1 km/h 66% 0.0 mm
21:09 13.5 °C 7.1 °C 1013.8 hPa Sur 7.4 km/h 11.1 km/h 65.1% 0.0 mm
21:14 13.5 °C 7 °C 1013.8 hPa SSO 6.4 km/h 11.1 km/h 65% 0.0 mm
21:19 13.4 °C 6.9 °C 1013.7 hPa SSO 6.6 km/h 11.1 km/h 65% 0.0 mm
21:24 13.4 °C 6.9 °C 1013.7 hPa SSO 7.6 km/h 11.1 km/h 64.6% 0.0 mm
21:29 13.4 °C 6.7 °C 1013.7 hPa SSO 7.7 km/h 11.9 km/h 64% 0.0 mm
21:34 13.3 °C 6.4 °C 1013.5 hPa Sur 8.4 km/h 14.8 km/h 62.9% 0.0 mm
21:39 13.3 °C 6.1 °C 1013.5 hPa SSO 8.6 km/h 14.8 km/h 61.5% 0.0 mm
21:44 13.3 °C 5.8 °C 1013.5 hPa SSO 10 km/h 15.6 km/h 60.6% 0.0 mm
21:49 13.3 °C 5.5 °C 1013.2 hPa SSO 10 km/h 15.6 km/h 59.4% 0.0 mm
21:54 13.3 °C 5.5 °C 1013.2 hPa Sur 10 km/h 14 km/h 58.9% 0.0 mm
21:59 13.4 °C 5.2 °C 1013.2 hPa SSO 9.7 km/h 14.8 km/h 57.8% 0.0 mm
22:04 13.4 °C 5.1 °C 1013.0 hPa SSO 8.7 km/h 13 km/h 57% 0.0 mm
22:09 13.6 °C 5.1 °C 1013.0 hPa SSO 8.7 km/h 14.8 km/h 56.3% 0.0 mm
22:14 13.7 °C 5 °C 1013.0 hPa SSO 8.7 km/h 14.8 km/h 55.9% 0.0 mm
22:19 13.7 °C 4.8 °C 1012.9 hPa SSO 8.6 km/h 11.9 km/h 55% 0.0 mm
22:24 13.7 °C 4.8 °C 1012.9 hPa SSO 8.4 km/h 11.1 km/h 55% 0.0 mm
22:29 13.7 °C 4.8 °C 1012.9 hPa SSO 8.1 km/h 11.1 km/h 55% 0.0 mm
22:34 13.7 °C 4.8 °C 1012.9 hPa SSO 6.9 km/h 13 km/h 55% 0.0 mm
22:39 13.8 °C 4.9 °C 1012.9 hPa SO 6.9 km/h 13 km/h 54.9% 0.0 mm
22:44 13.8 °C 4.7 °C 1012.9 hPa OSO 6.9 km/h 8.4 km/h 54.1% 0.0 mm
22:49 13.7 °C 4.8 °C 1012.7 hPa NO 6.5 km/h 5.8 km/h 55% 0.0 mm
22:54 13.6 °C 5 °C 1012.7 hPa Oeste 4.7 km/h 9.5 km/h 56% 0.0 mm
22:59 13.3 °C 5 °C 1012.7 hPa Oeste 4.7 km/h 7.6 km/h 57.1% 0.0 mm
23:04 13.1 °C 5 °C 1012.6 hPa OSO 5 km/h 10 km/h 58% 0.0 mm
23:09 12.9 °C 5 °C 1012.6 hPa SO 5.1 km/h 11.1 km/h 58.8% 0.0 mm
23:14 12.8 °C 5 °C 1012.6 hPa SO 6.4 km/h 11.1 km/h 59% 0.0 mm
23:19 12.9 °C 5 °C 1012.3 hPa SO 6.5 km/h 10 km/h 59% 0.0 mm
23:24 12.9 °C 4.9 °C 1012.3 hPa SSO 6.9 km/h 9.5 km/h 58% 0.0 mm
23:29 13.1 °C 5 °C 1012.3 hPa Sur 6.7 km/h 7.6 km/h 58% 0.0 mm
23:34 13.1 °C 5 °C 1012.1 hPa Sur 5.8 km/h 8.4 km/h 58% 0.0 mm
23:39 13.1 °C 5 °C 1012.1 hPa SSO 5.8 km/h 9.5 km/h 58% 0.0 mm
23:44 13 °C 5 °C 1012.1 hPa SO 5.8 km/h 7.4 km/h 58% 0.0 mm
23:49 12.9 °C 4.9 °C 1011.9 hPa NNE 5.5 km/h 7.4 km/h 58% 0.0 mm
23:54 12.9 °C 5 °C 1011.9 hPa NE 3.9 km/h 3.7 km/h 58.9% 0.0 mm
23:59 12.8 °C 5 °C 1011.9 hPa NNE 3.5 km/h 6.4 km/h 59% 0.0 mm
Murcia-Puente Tocinos, Espa?a
Compliments of Weather Underground - 3 mb

La estación de MeteoMurcia.com, publica sus datos en los siguientes proyectos:

Weather Underground PWS IMURCIAP2 Meteoclimatic www.awekas.at

W3Counter
Web Analytics